createdAt,value
2023-01-12T00:00:45.782Z,91
2023-01-12T00:01:48.585Z,90.8
2023-01-12T00:02:51.843Z,90.6
2023-01-12T00:03:56.175Z,90.8
2023-01-12T00:05:00.428Z,90.8
2023-01-12T00:06:03.273Z,90.9
2023-01-12T00:07:06.874Z,91
2023-01-12T00:08:09.605Z,91
2023-01-12T00:09:12.438Z,91.1
2023-01-12T00:10:15.150Z,91.2
2023-01-12T00:11:18.309Z,91.2
2023-01-12T00:12:21.741Z,91.1
2023-01-12T00:13:25.207Z,91.3
2023-01-12T00:14:28.675Z,91.5
2023-01-12T00:15:31.943Z,91.7
2023-01-12T00:16:35.985Z,91.9
2023-01-12T00:17:39.351Z,91.8
2023-01-12T00:18:42.134Z,91.8
2023-01-12T00:19:46.032Z,91.5
2023-01-12T00:20:49.036Z,91.5
2023-01-12T00:21:52.132Z,91.6
2023-01-12T00:22:55.457Z,91.5
2023-01-12T00:23:59.182Z,91.6
2023-01-12T00:25:02.479Z,91.8
2023-01-12T00:26:05.620Z,91.9
2023-01-12T00:27:09.048Z,91.7
2023-01-12T00:28:12.449Z,91.7
2023-01-12T00:29:15.916Z,91.9
2023-01-12T00:30:18.802Z,92.1
2023-01-12T00:31:21.763Z,92.3
2023-01-12T00:32:24.534Z,92.3
2023-01-12T00:33:27.315Z,92.3
2023-01-12T00:34:31.501Z,92.4
2023-01-12T00:35:35.345Z,92.4
2023-01-12T00:36:38.342Z,92.1
2023-01-12T00:37:41.052Z,92.4
2023-01-12T00:38:44.394Z,92.6
2023-01-12T00:40:04.152Z,92.7
2023-01-12T00:41:07.555Z,93.2
2023-01-12T00:42:10.603Z,93.4
2023-01-12T00:43:13.655Z,93.5
2023-01-12T00:44:16.746Z,93.5
2023-01-12T00:45:19.549Z,93.6
2023-01-12T00:46:22.883Z,93.6
2023-01-12T00:47:25.844Z,93.8
2023-01-12T00:48:29.300Z,93.9
2023-01-12T00:49:31.730Z,94
2023-01-12T00:50:34.550Z,94.2
2023-01-12T00:51:38.607Z,94.1
2023-01-12T00:52:41.202Z,94.2
2023-01-12T00:53:43.966Z,94.2
2023-01-12T00:54:47.619Z,94.4
2023-01-12T00:55:50.953Z,94.8
2023-01-12T00:56:53.947Z,94.9
2023-01-12T00:57:57.120Z,94.9
2023-01-12T00:59:00.207Z,94.9
2023-01-12T01:00:03.099Z,94.8
2023-01-12T01:01:06.405Z,94.8
2023-01-12T01:02:11.043Z,94.7
2023-01-12T01:03:14.896Z,94.7
2023-01-12T01:04:17.598Z,94.9
2023-01-12T01:05:20.080Z,94.9
2023-01-12T01:06:23.152Z,94.9
2023-01-12T01:07:27.029Z,95.1
2023-01-12T01:08:30.726Z,95
2023-01-12T01:09:34.104Z,95
2023-01-12T01:10:37.567Z,94.8
2023-01-12T01:11:39.731Z,94.7
2023-01-12T01:12:42.726Z,94.8
2023-01-12T01:13:44.907Z,94.7
2023-01-12T01:14:47.962Z,94.8
2023-01-12T01:15:52.012Z,94.7
2023-01-12T01:16:55.926Z,94.6
2023-01-12T01:17:58.913Z,94.7
2023-01-12T01:19:01.797Z,94.7
2023-01-12T01:20:04.620Z,94.7
2023-01-12T01:21:07.794Z,94.8
2023-01-12T01:22:11.473Z,94.8
2023-01-12T01:23:15.319Z,94.9
2023-01-12T01:24:18.612Z,95
2023-01-12T01:25:21.780Z,95
2023-01-12T01:26:24.884Z,94.9
2023-01-12T01:27:27.354Z,94.8
2023-01-12T01:28:30.347Z,94.7
2023-01-12T01:29:33.713Z,94.6
2023-01-12T01:30:36.710Z,94.6
2023-01-12T01:31:40.256Z,94.5
2023-01-12T01:32:43.252Z,94.6
2023-01-12T01:33:46.039Z,94.5
2023-01-12T01:34:48.677Z,94.5
2023-01-12T01:35:51.874Z,94.6
2023-01-12T01:36:54.880Z,94.5
2023-01-12T01:37:58.050Z,94.5
2023-01-12T01:39:01.845Z,94.8
2023-01-12T01:40:04.576Z,94.9
2023-01-12T01:41:07.729Z,94.8
2023-01-12T01:42:10.437Z,95.1
2023-01-12T01:43:13.027Z,95.2
2023-01-12T01:44:16.711Z,95.3
2023-01-12T01:45:19.494Z,95.2
2023-01-12T01:46:23.099Z,95.1
2023-01-12T01:47:26.606Z,95.1
2023-01-12T01:48:29.741Z,95.2
2023-01-12T01:49:32.551Z,95.2
2023-01-12T01:50:34.965Z,95.3
2023-01-12T01:51:38.380Z,95.3
2023-01-12T01:52:41.482Z,95.3
2023-01-12T01:53:44.253Z,95.2
2023-01-12T01:54:48.027Z,95.2
2023-01-12T01:55:50.825Z,94.9
2023-01-12T01:56:54.492Z,94.7
2023-01-12T01:57:57.989Z,94.7
2023-01-12T01:59:01.097Z,94.6
2023-01-12T02:00:03.845Z,94.5
2023-01-12T02:01:06.493Z,94.2
2023-01-12T02:02:09.442Z,93.9
2023-01-12T02:03:13.238Z,94
2023-01-12T02:04:15.720Z,94
2023-01-12T02:05:18.865Z,93.9
2023-01-12T02:06:21.973Z,94
2023-01-12T02:07:25.290Z,94.1
2023-01-12T02:08:27.804Z,94.1
2023-01-12T02:09:30.914Z,93.9
2023-01-12T02:10:34.793Z,93.9
2023-01-12T02:11:37.790Z,93.9
2023-01-12T02:12:41.128Z,93.8
2023-01-12T02:13:43.914Z,93.8
2023-01-12T02:14:47.533Z,93.8
2023-01-12T02:15:51.063Z,93.8
2023-01-12T02:16:54.199Z,93.7
2023-01-12T02:17:57.290Z,93.7
2023-01-12T02:18:59.485Z,93.8
2023-01-12T02:20:03.327Z,93.7
2023-01-12T02:21:07.056Z,93.8
2023-01-12T02:22:09.853Z,93.9
2023-01-12T02:23:13.197Z,93.8
2023-01-12T02:24:15.626Z,93.6
2023-01-12T02:25:19.345Z,93.6
2023-01-12T02:26:23.864Z,93.4
2023-01-12T02:27:26.317Z,93.3
2023-01-12T02:28:29.318Z,93.3
2023-01-12T02:29:33.343Z,93.5
2023-01-12T02:30:36.487Z,93.5
2023-01-12T02:31:40.240Z,93.4
2023-01-12T02:32:43.466Z,93.4
2023-01-12T02:33:47.151Z,93.5
2023-01-12T02:34:50.690Z,93.6
2023-01-12T02:35:52.831Z,93.6
2023-01-12T02:36:56.096Z,93.6
2023-01-12T02:37:58.867Z,93.7
2023-01-12T02:39:01.887Z,93.6
2023-01-12T02:40:05.184Z,93.4
2023-01-12T02:41:08.865Z,93.3
2023-01-12T02:42:12.757Z,93.1
2023-01-12T02:43:16.198Z,92.8
2023-01-12T02:44:19.896Z,92.5
2023-01-12T02:45:22.887Z,92.3
2023-01-12T02:46:25.932Z,92.1
2023-01-12T02:47:29.672Z,92.1
2023-01-12T02:48:33.118Z,92.1
2023-01-12T02:49:36.759Z,92.2
2023-01-12T02:50:39.879Z,92.2
2023-01-12T02:51:42.122Z,92
2023-01-12T02:52:45.485Z,91.8
2023-01-12T02:53:48.310Z,91.8
2023-01-12T02:54:51.375Z,91.7
2023-01-12T02:55:54.370Z,91.6
2023-01-12T02:56:57.660Z,91.6
2023-01-12T02:58:01.716Z,91.6
2023-01-12T02:59:05.047Z,91.7
2023-01-12T03:00:07.880Z,91.7
2023-01-12T03:01:11.351Z,91.9
2023-01-12T03:02:14.740Z,92
2023-01-12T03:03:18.043Z,92.1
2023-01-12T03:04:21.428Z,92.1
2023-01-12T03:05:24.569Z,92.1
2023-01-12T03:06:27.962Z,92.1
2023-01-12T03:07:30.690Z,92.3
2023-01-12T03:08:33.405Z,92.3
2023-01-12T03:09:35.999Z,92.3
2023-01-12T03:10:39.298Z,92.6
2023-01-12T03:11:42.290Z,92.6
2023-01-12T03:12:45.404Z,92.5
2023-01-12T03:13:49.468Z,92.5
2023-01-12T03:14:52.826Z,92.5
2023-01-12T03:15:56.433Z,92.3
2023-01-12T03:16:59.726Z,92.3
2023-01-12T03:18:03.070Z,92.2
2023-01-12T03:19:05.532Z,92.5
2023-01-12T03:20:08.330Z,92.2
2023-01-12T03:21:10.899Z,92.2
2023-01-12T03:22:13.951Z,92.2
2023-01-12T03:23:16.955Z,92.2
2023-01-12T03:24:20.102Z,92.3
2023-01-12T03:25:23.431Z,92.4
2023-01-12T03:26:26.510Z,92.7
2023-01-12T03:27:29.341Z,92.8
2023-01-12T03:28:32.842Z,92.8
2023-01-12T03:29:36.940Z,92.9
2023-01-12T03:30:39.860Z,93.1
2023-01-12T03:31:42.884Z,93.1
2023-01-12T03:32:46.169Z,93.2
2023-01-12T03:33:48.714Z,93.6
2023-01-12T03:34:52.182Z,93.9
2023-01-12T03:35:54.608Z,94.2
2023-01-12T03:36:57.106Z,94.3
2023-01-12T03:38:00.477Z,94.3
2023-01-12T03:39:03.952Z,94.4
2023-01-12T03:40:07.056Z,94.5
2023-01-12T03:41:10.412Z,94.5
2023-01-12T03:42:13.268Z,94.6
2023-01-12T03:43:15.786Z,94.7
2023-01-12T03:44:18.910Z,94.9
2023-01-12T03:45:22.800Z,95
2023-01-12T03:46:26.344Z,95
2023-01-12T03:47:29.548Z,95.1
2023-01-12T03:48:33.240Z,95.2
2023-01-12T03:49:36.431Z,95.3
2023-01-12T03:50:39.491Z,95.3
2023-01-12T03:51:42.485Z,95.2
2023-01-12T03:52:45.603Z,95.3
2023-01-12T03:53:48.627Z,95.3
2023-01-12T03:54:51.988Z,95.4
2023-01-12T03:55:55.114Z,95.5
2023-01-12T03:56:58.467Z,95.6
2023-01-12T03:58:01.614Z,95.6
2023-01-12T03:59:05.238Z,95.7
2023-01-12T04:00:08.332Z,95.7
2023-01-12T04:01:12.373Z,96
2023-01-12T04:02:15.702Z,96.1
2023-01-12T04:03:18.753Z,96.3
2023-01-12T04:04:22.284Z,96.5
2023-01-12T04:05:25.000Z,96.5
2023-01-12T04:06:28.076Z,96.7
2023-01-12T04:07:30.290Z,96.9
2023-01-12T04:08:33.336Z,97
2023-01-12T04:09:36.184Z,97
2023-01-12T04:10:39.443Z,97.2
2023-01-12T04:11:42.693Z,97.1
2023-01-12T04:12:45.684Z,97
2023-01-12T04:13:48.832Z,97.1
2023-01-12T04:14:51.270Z,97.2
2023-01-12T04:15:54.078Z,97.1
2023-01-12T04:16:57.665Z,97.1
2023-01-12T04:18:00.439Z,96.8
2023-01-12T04:19:02.881Z,96.8
2023-01-12T04:20:05.683Z,96.8
2023-01-12T04:21:09.008Z,96.7
2023-01-12T04:22:12.024Z,96.6
2023-01-12T04:23:14.815Z,96.5
2023-01-12T04:24:18.429Z,96.4
2023-01-12T04:25:21.149Z,96.4
2023-01-12T04:26:24.344Z,96.3
2023-01-12T04:27:27.804Z,96.2
2023-01-12T04:28:31.324Z,96.2
2023-01-12T04:29:34.410Z,96
2023-01-12T04:30:37.418Z,95.8
2023-01-12T04:31:40.756Z,95.5
2023-01-12T04:32:44.997Z,95.5
2023-01-12T04:33:48.078Z,95.5
2023-01-12T04:34:50.867Z,95.6
2023-01-12T04:35:53.663Z,95.7
2023-01-12T04:36:57.023Z,95.9
2023-01-12T04:38:00.166Z,96
2023-01-12T04:39:03.241Z,96.1
2023-01-12T04:40:06.354Z,96
2023-01-12T04:41:09.911Z,96.1
2023-01-12T04:42:12.972Z,96.2
2023-01-12T04:43:16.055Z,96.2
2023-01-12T04:44:18.879Z,96.2
2023-01-12T04:45:22.025Z,96.1
2023-01-12T04:46:25.457Z,96.1
2023-01-12T04:47:28.925Z,96
2023-01-12T04:48:33.163Z,96
2023-01-12T04:49:36.240Z,96
2023-01-12T04:50:39.433Z,96
2023-01-12T04:51:42.218Z,96.1
2023-01-12T04:52:45.344Z,96.2
2023-01-12T04:53:47.793Z,96.3
2023-01-12T04:54:50.800Z,96.4
2023-01-12T04:55:53.661Z,96.6
2023-01-12T04:56:56.128Z,96.7
2023-01-12T04:57:59.455Z,96.9
2023-01-12T04:59:02.523Z,96.9
2023-01-12T05:00:06.346Z,96.9
2023-01-12T05:01:10.307Z,97.1
2023-01-12T05:02:14.342Z,97
2023-01-12T05:03:17.901Z,96.9
2023-01-12T05:04:21.980Z,96.9
2023-01-12T05:05:25.522Z,96.8
2023-01-12T05:06:28.911Z,96.8
2023-01-12T05:07:31.720Z,96.8
2023-01-12T05:08:35.091Z,96.8
2023-01-12T05:09:38.458Z,96.7
2023-01-12T05:10:40.674Z,96.7
2023-01-12T05:11:43.984Z,96.7
2023-01-12T05:12:47.425Z,96.6
2023-01-12T05:13:50.410Z,96.5
2023-01-12T05:14:53.236Z,96.5
2023-01-12T05:15:55.982Z,96.4
2023-01-12T05:16:59.406Z,96.4
2023-01-12T05:18:01.841Z,96.4
2023-01-12T05:19:04.865Z,96.5
2023-01-12T05:20:08.676Z,96.5
2023-01-12T05:21:11.388Z,96.5
2023-01-12T05:22:14.446Z,96.5
2023-01-12T05:23:17.832Z,96.5
2023-01-12T05:24:21.214Z,96.5
2023-01-12T05:25:24.565Z,96.6
2023-01-12T05:26:27.709Z,96.6
2023-01-12T05:27:30.548Z,96.5
2023-01-12T05:28:33.939Z,96.5
2023-01-12T05:29:36.388Z,96.5
2023-01-12T05:30:39.632Z,96.4
2023-01-12T05:31:42.211Z,96.3
2023-01-12T05:32:45.339Z,96.3
2023-01-12T05:33:47.875Z,96.1
2023-01-12T05:34:50.993Z,96.1
2023-01-12T05:35:54.850Z,96.1
2023-01-12T05:36:57.844Z,96.1
2023-01-12T05:38:00.872Z,96.1
2023-01-12T05:39:03.615Z,96.1
2023-01-12T05:40:06.208Z,96.1
2023-01-12T05:41:09.595Z,96
2023-01-12T05:42:12.445Z,96
2023-01-12T05:43:15.827Z,95.9
2023-01-12T05:44:19.164Z,95.9
2023-01-12T05:45:21.774Z,95.8
2023-01-12T05:46:25.609Z,95.8
2023-01-12T05:47:28.571Z,95.7
2023-01-12T05:48:31.296Z,95.7
2023-01-12T05:49:34.654Z,95.6
2023-01-12T05:50:38.717Z,95.7
2023-01-12T05:51:42.511Z,95.8
2023-01-12T05:52:45.954Z,95.8
2023-01-12T05:53:49.053Z,95.8
2023-01-12T05:54:52.057Z,95.8
2023-01-12T05:55:55.436Z,95.7
2023-01-12T05:56:57.975Z,95.7
2023-01-12T05:58:00.796Z,95.7
2023-01-12T05:59:04.476Z,95.7
2023-01-12T06:00:07.388Z,95.7
2023-01-12T06:01:11.135Z,95.7
2023-01-12T06:02:14.278Z,95.7
2023-01-12T06:03:16.868Z,95.7
2023-01-12T06:04:20.468Z,95.8
2023-01-12T06:05:23.268Z,95.8
2023-01-12T06:06:26.339Z,95.8
2023-01-12T06:07:30.482Z,95.8
2023-01-12T06:08:33.484Z,95.8
2023-01-12T06:09:36.570Z,95.8
2023-01-12T06:10:38.997Z,95.9
2023-01-12T06:11:42.339Z,95.9
2023-01-12T06:12:45.208Z,95.9
2023-01-12T06:13:48.071Z,96
2023-01-12T06:14:51.365Z,96
2023-01-12T06:15:54.657Z,96
2023-01-12T06:16:57.607Z,96.1
2023-01-12T06:18:00.705Z,96.1
2023-01-12T06:19:03.745Z,96
2023-01-12T06:20:06.466Z,96
2023-01-12T06:21:09.676Z,96
2023-01-12T06:22:13.302Z,96
2023-01-12T06:23:17.083Z,96.1
2023-01-12T06:24:19.606Z,96.1
2023-01-12T06:25:22.042Z,96.2
2023-01-12T06:26:25.698Z,96.1
2023-01-12T06:27:28.458Z,96.1
2023-01-12T06:28:31.282Z,96
2023-01-12T06:29:34.071Z,96.1
2023-01-12T06:30:37.419Z,96
2023-01-12T06:31:40.070Z,96
2023-01-12T06:32:42.880Z,96.2
2023-01-12T06:33:46.048Z,96.2
2023-01-12T06:34:49.385Z,96.3
2023-01-12T06:35:52.447Z,96.3
2023-01-12T06:36:55.557Z,96.3
2023-01-12T06:37:58.780Z,96.4
2023-01-12T06:39:02.046Z,96.6
2023-01-12T06:40:05.768Z,96.7
2023-01-12T06:41:08.925Z,96.9
2023-01-12T06:42:12.331Z,97
2023-01-12T06:43:15.040Z,97.2
2023-01-12T06:44:18.024Z,97.2
2023-01-12T06:45:20.809Z,97.4
2023-01-12T06:46:24.098Z,97.5
2023-01-12T06:47:26.690Z,97.6
2023-01-12T06:48:40.653Z,97.7
2023-01-12T06:49:43.750Z,97.7
2023-01-12T06:50:46.745Z,97.9
2023-01-12T06:51:49.818Z,98
2023-01-12T06:52:52.330Z,98.1
2023-01-12T06:53:55.396Z,98.2
2023-01-12T06:54:59.506Z,98.4
2023-01-12T06:56:02.243Z,98.5
2023-01-12T06:57:05.614Z,98.5
2023-01-12T06:58:09.378Z,98.5
2023-01-12T06:59:12.728Z,98.6
2023-01-12T07:00:15.725Z,98.7
2023-01-12T07:01:19.694Z,98.9
2023-01-12T07:02:22.944Z,99
2023-01-12T07:03:26.358Z,99
2023-01-12T07:04:29.358Z,99
2023-01-12T07:05:32.605Z,99
2023-01-12T07:06:35.797Z,99
2023-01-12T07:07:41.819Z,99.1
2023-01-12T07:08:44.674Z,99.1
2023-01-12T07:09:48.389Z,99.1
2023-01-12T07:10:52.513Z,99
2023-01-12T07:11:55.252Z,99
2023-01-12T07:12:58.662Z,98.9
2023-01-12T07:14:01.725Z,98.9
2023-01-12T07:15:04.988Z,99
2023-01-12T07:16:08.354Z,99.1
2023-01-12T07:17:12.197Z,99.2
2023-01-12T07:18:15.751Z,99.2
2023-01-12T07:19:19.058Z,99.3
2023-01-12T07:20:22.132Z,99.4
2023-01-12T07:21:25.142Z,99.6
2023-01-12T07:22:28.198Z,99.7
2023-01-12T07:23:31.083Z,99.7
2023-01-12T07:24:34.093Z,99.7
2023-01-12T07:25:37.860Z,99.6
2023-01-12T07:26:41.973Z,99.8
2023-01-12T07:27:45.337Z,99.9
2023-01-12T07:28:48.678Z,99.7
2023-01-12T07:29:52.071Z,99.7
2023-01-12T07:30:55.339Z,99.7
2023-01-12T07:31:57.686Z,99.7
2023-01-12T07:33:01.138Z,99.6
2023-01-12T07:34:03.989Z,99.6
2023-01-12T07:35:07.102Z,99.6
2023-01-12T07:36:10.191Z,99.5
2023-01-12T07:37:15.106Z,99.5
2023-01-12T07:38:18.100Z,99.5
2023-01-12T07:39:21.107Z,99.5
2023-01-12T07:40:24.211Z,99.5
2023-01-12T07:41:27.543Z,99.5
2023-01-12T07:42:31.819Z,99.4
2023-01-12T07:43:35.195Z,99.5
2023-01-12T07:44:38.481Z,99.5
2023-01-12T07:45:41.257Z,99.5
2023-01-12T07:46:45.051Z,99.5
2023-01-12T07:47:48.617Z,99.6
2023-01-12T07:48:51.619Z,99.6
2023-01-12T07:49:55.001Z,99.6
2023-01-12T07:50:57.837Z,99.7
2023-01-12T07:52:00.641Z,99.8
2023-01-12T07:53:04.483Z,99.9
2023-01-12T07:54:07.495Z,99.9
2023-01-12T07:55:11.221Z,100
2023-01-12T07:56:14.587Z,99.9
2023-01-12T07:57:18.017Z,99.9
2023-01-12T07:58:21.920Z,100
2023-01-12T07:59:25.531Z,100
2023-01-12T08:00:29.182Z,99.8
2023-01-12T08:01:33.451Z,99.8
2023-01-12T08:02:37.259Z,99.8
2023-01-12T08:03:39.969Z,99.8
2023-01-12T08:04:43.115Z,99.8
2023-01-12T08:05:46.489Z,99.6
2023-01-12T08:06:49.645Z,99.7
2023-01-12T08:07:52.858Z,99.8
2023-01-12T08:08:56.153Z,99.8
2023-01-12T08:09:59.841Z,99.8
2023-01-12T08:11:03.270Z,99.7
2023-01-12T08:12:06.948Z,99.7
2023-01-12T08:13:10.465Z,99.6
2023-01-12T08:14:14.721Z,99.6
2023-01-12T08:15:17.723Z,99.6
2023-01-12T08:16:21.126Z,99.5
2023-01-12T08:17:24.726Z,99.5
2023-01-12T08:18:27.445Z,99.7
2023-01-12T08:19:31.181Z,99.7
2023-01-12T08:20:34.199Z,99.6
2023-01-12T08:21:38.058Z,99.6
2023-01-12T08:22:41.726Z,99.6
2023-01-12T08:23:45.125Z,99.5
2023-01-12T08:24:48.847Z,99.5
2023-01-12T08:25:51.345Z,99.5
2023-01-12T08:26:54.717Z,99.5
2023-01-12T08:27:58.439Z,99.5
2023-01-12T08:29:01.567Z,99.6
2023-01-12T08:30:05.499Z,99.4
2023-01-12T08:31:09.483Z,99.5
2023-01-12T08:32:13.211Z,99.4
2023-01-12T08:33:16.767Z,99.3
2023-01-12T08:34:20.039Z,99.3
2023-01-12T08:35:23.343Z,99.4
2023-01-12T08:36:26.365Z,99.3
2023-01-12T08:37:30.485Z,99.4
2023-01-12T08:38:33.364Z,99.3
2023-01-12T08:39:37.354Z,99.2
2023-01-12T08:40:41.370Z,99.3
2023-01-12T08:41:44.781Z,99.4
2023-01-12T08:42:47.632Z,99.3
2023-01-12T08:43:51.361Z,99.4
2023-01-12T08:44:55.110Z,99.4
2023-01-12T08:45:59.347Z,99.3
2023-01-12T08:47:02.419Z,99.3
2023-01-12T08:48:04.641Z,99.2
2023-01-12T08:49:07.593Z,99.2
2023-01-12T08:50:12.113Z,99.2
2023-01-12T08:51:15.474Z,99.2
2023-01-12T08:52:18.735Z,99.2
2023-01-12T08:53:22.052Z,99.1
2023-01-12T08:54:25.524Z,99.1
2023-01-12T08:55:29.291Z,99.1
2023-01-12T08:56:32.443Z,99
2023-01-12T08:57:35.539Z,99
2023-01-12T08:58:38.964Z,98.9
2023-01-12T08:59:41.729Z,98.9
2023-01-12T09:00:45.322Z,99.3
2023-01-12T09:01:50.255Z,99.3
2023-01-12T09:02:53.287Z,99.2
2023-01-12T09:03:56.357Z,99.3
2023-01-12T09:04:59.099Z,98.8
2023-01-12T09:06:01.899Z,98.7
2023-01-12T09:07:05.317Z,98.8
2023-01-12T09:08:08.757Z,98.8
2023-01-12T09:09:11.650Z,98.8
2023-01-12T09:10:15.034Z,98.9
2023-01-12T09:11:18.018Z,98.6
2023-01-12T09:12:24.971Z,98.5
2023-01-12T09:13:28.155Z,98.7
2023-01-12T09:14:31.798Z,98.7
2023-01-12T09:15:35.557Z,98.7
2023-01-12T09:16:39.652Z,98.9
2023-01-12T09:17:43.399Z,98.8
2023-01-12T09:18:46.122Z,98.8
2023-01-12T09:19:49.494Z,98.9
2023-01-12T09:20:52.731Z,98.8
2023-01-12T09:21:55.838Z,98.5
2023-01-12T09:22:59.857Z,98.4
2023-01-12T09:24:03.671Z,98.3
2023-01-12T09:25:07.399Z,98.3
2023-01-12T09:26:10.698Z,98.2
2023-01-12T09:27:14.437Z,98.2
2023-01-12T09:28:17.573Z,98.1
2023-01-12T09:29:20.421Z,98.2
2023-01-12T09:30:23.825Z,98.2
2023-01-12T09:31:27.429Z,98
2023-01-12T09:32:38.471Z,97.9
2023-01-12T09:33:42.075Z,97.7
2023-01-12T09:34:44.855Z,97.3
2023-01-12T09:35:48.563Z,97.5
2023-01-12T09:36:51.409Z,97.7
2023-01-12T09:37:54.475Z,97.7
2023-01-12T09:38:57.344Z,97.6
2023-01-12T09:40:00.767Z,97.3
2023-01-12T09:41:03.990Z,97.5
2023-01-12T09:42:07.167Z,97.3
2023-01-12T09:43:10.180Z,97.4
2023-01-12T09:44:13.345Z,97.5
2023-01-12T09:45:17.089Z,97.6
2023-01-12T09:46:20.268Z,97.2
2023-01-12T09:47:23.377Z,97.3
2023-01-12T09:48:26.762Z,97.4
2023-01-12T09:49:30.940Z,97.6
2023-01-12T09:50:33.758Z,97.6
2023-01-12T09:51:37.225Z,97.7
2023-01-12T09:52:41.278Z,97.8
2023-01-12T09:53:48.073Z,98.1
2023-01-12T09:54:51.259Z,98.1
2023-01-12T09:55:54.907Z,98.2
2023-01-12T09:56:58.823Z,98
2023-01-12T09:58:01.935Z,99.6
2023-01-12T09:59:04.783Z,98
2023-01-12T10:00:07.638Z,96.7
2023-01-12T10:01:30.848Z,96.5
2023-01-12T10:02:35.283Z,96.7
2023-01-12T10:03:40.273Z,96.9
2023-01-12T10:04:44.578Z,97.1
2023-01-12T10:05:48.220Z,97.4
2023-01-12T10:06:51.923Z,97.5
2023-01-12T10:07:54.458Z,97.4
2023-01-12T10:08:57.839Z,97.6
2023-01-12T10:10:01.246Z,97.5
2023-01-12T10:11:04.257Z,97.7
2023-01-12T10:12:07.274Z,97.8
2023-01-12T10:13:10.455Z,97.9
2023-01-12T10:14:12.959Z,98
2023-01-12T10:15:16.204Z,98.2
2023-01-12T10:16:19.210Z,98.7
2023-01-12T10:17:22.699Z,98.7
2023-01-12T10:18:26.103Z,98.8
2023-01-12T10:19:29.822Z,98.9
2023-01-12T10:20:33.712Z,98.8
2023-01-12T10:21:36.771Z,98.8
2023-01-12T10:22:39.701Z,98.7
2023-01-12T10:23:43.399Z,98.6
2023-01-12T10:24:47.151Z,98.5
2023-01-12T10:25:50.282Z,98.5
2023-01-12T10:26:53.355Z,98.4
2023-01-12T10:27:57.188Z,98.7
2023-01-12T10:29:01.029Z,98.7
2023-01-12T10:30:04.325Z,98.9
2023-01-12T10:31:07.777Z,98.9
2023-01-12T10:32:10.839Z,98.9
2023-01-12T10:33:14.530Z,99
2023-01-12T10:34:17.931Z,99.1
2023-01-12T10:35:21.396Z,99.2
2023-01-12T10:36:25.478Z,99.2
2023-01-12T10:37:28.467Z,99.2
2023-01-12T10:38:31.596Z,99.3
2023-01-12T10:39:34.962Z,99.1
2023-01-12T10:40:38.350Z,99.1
2023-01-12T10:41:41.687Z,99.1
2023-01-12T10:42:44.758Z,99.3
2023-01-12T10:43:47.976Z,99.5
2023-01-12T10:44:51.097Z,99.6
2023-01-12T10:45:53.983Z,99.5
2023-01-12T10:46:56.471Z,99.5
2023-01-12T10:48:00.097Z,99.8
2023-01-12T10:49:02.967Z,99.7
2023-01-12T10:50:06.617Z,99.5
2023-01-12T10:51:10.001Z,99.5
2023-01-12T10:52:13.580Z,99.4
2023-01-12T10:53:17.319Z,99.5
2023-01-12T10:54:21.058Z,99.4
2023-01-12T10:55:24.146Z,99.5
2023-01-12T10:56:26.967Z,99.6
2023-01-12T10:57:29.756Z,99.6
2023-01-12T10:58:32.799Z,99.5
2023-01-12T10:59:36.307Z,99.2
2023-01-12T11:00:39.737Z,99.3
2023-01-12T11:01:43.471Z,98.9
2023-01-12T11:02:47.052Z,99.1
2023-01-12T11:03:49.736Z,99.1
2023-01-12T11:04:53.896Z,99.2
2023-01-12T11:05:57.570Z,99.2
2023-01-12T11:07:02.825Z,99.1
2023-01-12T11:08:08.896Z,99.2
2023-01-12T11:09:11.718Z,99.2
2023-01-12T11:10:20.957Z,99.2
2023-01-12T11:11:24.433Z,99.1
2023-01-12T11:12:30.891Z,99.2
2023-01-12T11:13:34.091Z,99.3
2023-01-12T11:14:37.749Z,99.4
2023-01-12T11:15:41.273Z,99.3
2023-01-12T11:16:45.134Z,99.4
2023-01-12T11:17:51.288Z,99.5
2023-01-12T11:18:54.648Z,99.5
2023-01-12T11:19:57.396Z,99.6
2023-01-12T11:21:00.884Z,99.5
2023-01-12T11:22:04.322Z,99.5
2023-01-12T11:23:08.000Z,99.4
2023-01-12T11:24:11.809Z,99.3
2023-01-12T11:25:15.062Z,99.3
2023-01-12T11:26:18.115Z,99.3
2023-01-12T11:27:20.975Z,99.3
2023-01-12T11:28:24.457Z,99.4
2023-01-12T11:29:27.523Z,99.4
2023-01-12T11:30:30.780Z,99.3
2023-01-12T11:31:33.989Z,99.3
2023-01-12T11:32:37.284Z,99.3
2023-01-12T11:33:39.977Z,99.3
2023-01-12T11:34:43.441Z,99.1
2023-01-12T11:35:46.784Z,99.2
2023-01-12T11:36:48.942Z,99.3
2023-01-12T11:37:52.054Z,99.3
2023-01-12T11:38:55.734Z,99.3
2023-01-12T11:39:59.286Z,99.3
2023-01-12T11:41:02.631Z,99.3
2023-01-12T11:42:05.129Z,99.4
2023-01-12T11:43:08.815Z,99.5
2023-01-12T11:44:12.265Z,99.3
2023-01-12T11:45:15.083Z,99.2
2023-01-12T11:46:19.028Z,99.1
2023-01-12T11:47:22.277Z,99.1
2023-01-12T11:48:25.454Z,99.2
2023-01-12T11:49:28.505Z,99.2
2023-01-12T11:50:31.376Z,99.3
2023-01-12T11:51:34.212Z,99.3
2023-01-12T11:52:37.587Z,99.3
2023-01-12T11:53:42.945Z,99.1
2023-01-12T11:54:46.294Z,99.1
2023-01-12T11:55:50.442Z,99.2
2023-01-12T11:56:53.810Z,99.2
2023-01-12T11:57:57.316Z,99.2
2023-01-12T11:59:01.341Z,99
2023-01-12T12:00:04.621Z,99
2023-01-12T12:01:09.551Z,98.9
2023-01-12T12:02:13.617Z,99
2023-01-12T12:03:18.220Z,98.9
2023-01-12T12:04:22.053Z,98.7
2023-01-12T12:05:25.366Z,98.6
2023-01-12T12:06:28.809Z,98.7
2023-01-12T12:07:32.083Z,98.6
2023-01-12T12:08:35.753Z,98.6
2023-01-12T12:09:38.895Z,98.7
2023-01-12T12:10:41.956Z,98.6
2023-01-12T12:11:46.363Z,98.3
2023-01-12T12:12:49.857Z,98.2
2023-01-12T12:13:53.165Z,98.4
2023-01-12T12:14:55.712Z,98.3
2023-01-12T12:15:59.371Z,98.4
2023-01-12T12:17:03.232Z,98.4
2023-01-12T12:18:06.672Z,98.5
2023-01-12T12:19:10.005Z,98.7
2023-01-12T12:20:13.394Z,98.6
2023-01-12T12:21:16.767Z,98.5
2023-01-12T12:22:20.431Z,98.5
2023-01-12T12:23:23.995Z,98.5
2023-01-12T12:24:27.631Z,98.4
2023-01-12T12:25:31.509Z,98.3
2023-01-12T12:26:34.908Z,98.4
2023-01-12T12:27:38.563Z,98.5
2023-01-12T12:28:42.598Z,98.4
2023-01-12T12:29:45.041Z,98.2
2023-01-12T12:30:48.283Z,98.2
2023-01-12T12:31:52.317Z,98.3
2023-01-12T12:32:56.340Z,98.2
2023-01-12T12:33:59.443Z,98.4
2023-01-12T12:35:03.183Z,98.5
2023-01-12T12:36:06.914Z,98.6
2023-01-12T12:37:10.933Z,98.7
2023-01-12T12:38:14.969Z,98.7
2023-01-12T12:39:18.449Z,98.7
2023-01-12T12:40:21.803Z,98.7
2023-01-12T12:41:26.063Z,99
2023-01-12T12:42:29.321Z,99.1
2023-01-12T12:43:33.457Z,99
2023-01-12T12:44:36.361Z,99.1
2023-01-12T12:45:39.506Z,99
2023-01-12T12:46:42.928Z,99.1
2023-01-12T12:47:46.266Z,99.2
2023-01-12T12:48:49.646Z,99
2023-01-12T12:49:52.984Z,98.8
2023-01-12T12:50:56.376Z,98.7
2023-01-12T12:51:59.981Z,98.7
2023-01-12T12:53:02.711Z,98.6
2023-01-12T12:54:06.439Z,98.4
2023-01-12T12:55:09.955Z,98.5
2023-01-12T12:56:13.677Z,98.4
2023-01-12T12:57:16.620Z,98.5
2023-01-12T12:58:19.986Z,98.7
2023-01-12T12:59:24.096Z,98.7
2023-01-12T13:00:27.515Z,98.7
2023-01-12T13:01:31.376Z,99.1
2023-01-12T13:02:34.905Z,99.1
2023-01-12T13:03:38.368Z,99.2
2023-01-12T13:04:41.731Z,99
2023-01-12T13:05:45.384Z,98.7
2023-01-12T13:06:49.288Z,98.7
2023-01-12T13:07:53.059Z,98.7
2023-01-12T13:08:56.899Z,98.6
2023-01-12T13:10:00.632Z,98.6
2023-01-12T13:11:03.696Z,98.6
2023-01-12T13:12:06.877Z,98.8
2023-01-12T13:13:10.305Z,98.7
2023-01-12T13:14:13.033Z,98.9
2023-01-12T13:15:18.768Z,98.9
2023-01-12T13:16:22.593Z,98.9
2023-01-12T13:17:25.955Z,99.2
2023-01-12T13:18:29.687Z,99.3
2023-01-12T13:19:33.783Z,99.4
2023-01-12T13:20:37.014Z,99.6
2023-01-12T13:21:40.765Z,99.6
2023-01-12T13:22:44.478Z,99.6
2023-01-12T13:23:47.577Z,99.9
2023-01-12T13:24:50.728Z,100
2023-01-12T13:25:53.744Z,100
2023-01-12T13:26:56.537Z,100
2023-01-12T13:27:59.530Z,100
2023-01-12T13:29:03.570Z,100
2023-01-12T13:30:06.644Z,100
2023-01-12T13:31:10.700Z,100
2023-01-12T13:32:13.914Z,99.7
2023-01-12T13:33:17.054Z,99.5
2023-01-12T13:34:20.434Z,99.5
2023-01-12T13:35:23.503Z,99.4
2023-01-12T13:36:26.570Z,99.4
2023-01-12T13:37:30.006Z,99.4
2023-01-12T13:38:33.758Z,99.4
2023-01-12T13:39:36.977Z,99.4
2023-01-12T13:40:39.967Z,99.3
2023-01-12T13:41:43.500Z,99.3
2023-01-12T13:42:46.340Z,99.3
2023-01-12T13:43:49.764Z,99.4
2023-01-12T13:44:53.236Z,99.6
2023-01-12T13:45:56.723Z,99.8
2023-01-12T13:47:00.458Z,99.8
2023-01-12T13:48:03.922Z,100
2023-01-12T13:49:07.115Z,100
2023-01-12T13:50:10.642Z,100
2023-01-12T13:51:13.067Z,100
2023-01-12T13:52:16.877Z,100
2023-01-12T13:53:20.566Z,100
2023-01-12T13:54:23.507Z,100
2023-01-12T13:55:26.675Z,100
2023-01-12T13:56:30.124Z,100
2023-01-12T13:57:32.921Z,100
2023-01-12T13:58:36.274Z,100
2023-01-12T13:59:39.662Z,100
2023-01-12T14:00:43.206Z,100
2023-01-12T14:01:46.905Z,100
2023-01-12T14:02:51.604Z,100
2023-01-12T14:03:54.896Z,100
2023-01-12T14:04:58.595Z,100
2023-01-12T14:06:02.049Z,100
2023-01-12T14:07:05.438Z,100
2023-01-12T14:08:08.938Z,100
2023-01-12T14:09:11.992Z,100